createdAt,value
2023-02-11T00:01:18.303Z,5.37
2023-02-11T00:03:48.223Z,5.50
2023-02-11T00:06:16.765Z,4.97
2023-02-11T00:08:45.187Z,5.83
2023-02-11T00:11:14.628Z,4.63
2023-02-11T00:13:43.184Z,5.43
2023-02-11T00:16:12.066Z,4.90
2023-02-11T00:18:40.547Z,5.57
2023-02-11T00:21:10.692Z,5.17
2023-02-11T00:23:39.124Z,5.33
2023-02-11T00:26:13.004Z,4.70
2023-02-11T00:28:41.412Z,5.13
2023-02-11T00:31:10.134Z,6.07
2023-02-11T00:33:38.606Z,5.23
2023-02-11T00:36:07.253Z,5.20
2023-02-11T00:38:37.024Z,5.77
2023-02-11T00:41:05.490Z,4.63
2023-02-11T00:43:33.880Z,5.83
2023-02-11T00:46:02.287Z,5.90
2023-02-11T00:48:31.126Z,5.13
2023-02-11T00:50:59.563Z,5.53
2023-02-11T00:53:31.854Z,5.17
2023-02-11T00:56:02.061Z,5.83
2023-02-11T00:58:30.592Z,5.20
2023-02-11T01:00:59.066Z,5.90
2023-02-11T01:03:27.503Z,5.70
2023-02-11T01:05:55.891Z,5.57
2023-02-11T01:08:24.303Z,5.93
2023-02-11T01:10:56.126Z,6.50
2023-02-11T01:13:25.906Z,5.77
2023-02-11T01:15:54.476Z,6.47
2023-02-11T01:18:22.962Z,5.67
2023-02-11T01:20:51.282Z,5.93
2023-02-11T01:23:19.650Z,6.10
2023-02-11T01:25:48.591Z,6.37
2023-02-11T01:28:18.357Z,5.83
2023-02-11T01:30:48.218Z,6.40
2023-02-11T01:33:16.617Z,5.90
2023-02-11T01:35:45.327Z,6.73
2023-02-11T01:38:16.579Z,6.40
2023-02-11T01:40:48.582Z,6.73
2023-02-11T01:43:17.047Z,6.97
2023-02-11T01:45:58.166Z,7.27
2023-02-11T01:48:27.671Z,6.50
2023-02-11T01:50:56.941Z,7.63
2023-02-11T01:53:43.232Z,7.00
2023-02-11T01:56:29.474Z,6.80
2023-02-11T01:58:59.042Z,7.00
2023-02-11T02:01:29.114Z,7.10
2023-02-11T02:03:58.682Z,7.73
2023-02-11T02:06:28.127Z,7.57
2023-02-11T02:08:57.785Z,7.43
2023-02-11T02:11:26.536Z,6.80
2023-02-11T02:13:54.969Z,7.33
2023-02-11T02:16:23.595Z,8.43
2023-02-11T02:18:54.660Z,8.30
2023-02-11T02:21:37.908Z,8.33
2023-02-11T02:24:21.180Z,7.53
2023-02-11T02:26:55.951Z,7.60
2023-02-11T02:29:29.724Z,7.40
2023-02-11T02:32:16.580Z,7.73
2023-02-11T02:34:46.697Z,7.47
2023-02-11T02:37:17.215Z,7.70
2023-02-11T02:39:45.686Z,7.67
2023-02-11T02:42:14.182Z,8.33
2023-02-11T02:44:42.654Z,8.20
2023-02-11T02:47:11.120Z,7.70
2023-02-11T02:49:39.628Z,7.50
2023-02-11T02:52:16.664Z,7.63
2023-02-11T02:55:04.701Z,8.13
2023-02-11T02:57:34.414Z,9.40
2023-02-11T03:00:09.552Z,9.13
2023-02-11T03:02:38.537Z,8.50
2023-02-11T03:05:09.111Z,8.37
2023-02-11T03:07:39.674Z,8.33
2023-02-11T03:10:09.528Z,7.90
2023-02-11T03:12:37.986Z,8.17
2023-02-11T03:15:07.069Z,8.43
2023-02-11T03:17:35.694Z,8.17
2023-02-11T03:20:04.337Z,8.43
2023-02-11T03:22:34.751Z,7.60
2023-02-11T03:25:04.754Z,8.33
2023-02-11T03:27:34.885Z,8.53
2023-02-11T03:30:03.576Z,8.53
2023-02-11T03:32:34.992Z,8.20
2023-02-11T03:35:04.471Z,9.00
2023-02-11T03:37:33.797Z,8.50
2023-02-11T03:40:02.693Z,8.77
2023-02-11T03:42:34.373Z,9.33
2023-02-11T03:45:05.340Z,8.97
2023-02-11T03:47:34.096Z,8.93
2023-02-11T03:50:02.867Z,9.70
2023-02-11T03:52:31.657Z,9.67
2023-02-11T03:55:00.527Z,9.90
2023-02-11T03:57:29.345Z,9.33
2023-02-11T03:59:59.745Z,9.90
2023-02-11T04:02:29.056Z,10.50
2023-02-11T04:04:57.706Z,10.57
2023-02-11T04:07:26.214Z,9.47
2023-02-11T04:09:54.686Z,9.80
2023-02-11T04:12:23.314Z,9.37
2023-02-11T04:14:51.855Z,9.43
2023-02-11T04:17:21.660Z,10.03
2023-02-11T04:19:50.086Z,11.23
2023-02-11T04:22:18.654Z,10.50
2023-02-11T04:24:47.211Z,11.10
2023-02-11T04:27:15.677Z,10.80
2023-02-11T04:29:44.200Z,11.83
2023-02-11T04:32:12.724Z,10.57
2023-02-11T04:34:42.670Z,10.83
2023-02-11T04:37:11.058Z,11.47
2023-02-11T04:39:39.514Z,11.20
2023-02-11T04:42:08.131Z,11.53
2023-02-11T04:44:36.584Z,11.87
2023-02-11T04:47:05.280Z,11.73
2023-02-11T04:49:34.081Z,12.40
2023-02-11T04:52:04.046Z,12.00
2023-02-11T04:54:32.589Z,12.20
2023-02-11T04:57:01.197Z,12.00
2023-02-11T04:59:29.689Z,13.47
2023-02-11T05:01:58.155Z,13.37
2023-02-11T05:04:26.614Z,13.67
2023-02-11T05:06:56.599Z,15.50
2023-02-11T05:09:28.311Z,13.60
2023-02-11T05:11:56.953Z,14.97
2023-02-11T05:14:25.422Z,13.70
2023-02-11T05:16:53.952Z,14.90
2023-02-11T05:19:22.528Z,14.53
2023-02-11T05:22:02.182Z,15.47
2023-02-11T05:24:33.477Z,17.03
2023-02-11T05:27:01.944Z,16.10
2023-02-11T05:29:30.367Z,16.03
2023-02-11T05:31:58.806Z,17.07
2023-02-11T05:34:27.210Z,16.30
2023-02-11T05:36:55.703Z,18.90
2023-02-11T05:39:24.154Z,18.20
2023-02-11T05:41:53.997Z,18.63
2023-02-11T05:44:22.678Z,18.50
2023-02-11T05:46:51.081Z,18.50
2023-02-11T05:49:19.424Z,19.97
2023-02-11T05:51:47.987Z,18.03
2023-02-11T05:54:16.747Z,19.20
2023-02-11T05:56:45.247Z,18.40
2023-02-11T05:59:15.747Z,20.13
2023-02-11T06:01:44.133Z,19.07
2023-02-11T06:04:12.528Z,19.53
2023-02-11T06:06:40.941Z,18.40
2023-02-11T06:09:09.395Z,20.00
2023-02-11T06:11:37.739Z,20.17
2023-02-11T06:14:06.369Z,20.13
2023-02-11T06:16:36.171Z,21.30
2023-02-11T06:19:04.673Z,20.10
2023-02-11T06:21:43.400Z,20.23
2023-02-11T06:24:12.587Z,21.30
2023-02-11T06:26:41.044Z,21.83
2023-02-11T06:29:09.695Z,21.00
2023-02-11T06:31:41.129Z,21.50
2023-02-11T06:34:10.427Z,22.80
2023-02-11T06:36:39.068Z,23.13
2023-02-11T06:39:07.516Z,22.43
2023-02-11T06:41:36.035Z,23.80
2023-02-11T06:44:04.469Z,23.30
2023-02-11T06:46:33.200Z,23.90
2023-02-11T06:49:03.140Z,23.33
2023-02-11T06:51:31.560Z,22.03
2023-02-11T06:54:00.254Z,22.80
2023-02-11T06:56:28.894Z,22.43
2023-02-11T06:58:57.300Z,22.73
2023-02-11T07:01:27.154Z,23.07
2023-02-11T07:03:55.702Z,23.00
2023-02-11T07:06:27.274Z,23.77
2023-02-11T07:08:55.661Z,22.73
2023-02-11T07:11:25.407Z,24.00
2023-02-11T07:13:54.162Z,23.83
2023-02-11T07:16:22.679Z,23.13
2023-02-11T07:18:51.573Z,24.47
2023-02-11T07:21:20.728Z,23.47
2023-02-11T07:23:50.826Z,24.83
2023-02-11T07:26:19.990Z,24.57
2023-02-11T07:28:51.415Z,23.83
2023-02-11T07:31:20.756Z,25.07
2023-02-11T07:33:49.247Z,24.67
2023-02-11T07:36:17.862Z,24.63
2023-02-11T07:38:46.334Z,24.43
2023-02-11T07:41:16.428Z,25.30
2023-02-11T07:43:44.976Z,25.33
2023-02-11T07:46:13.989Z,24.40
2023-02-11T07:48:42.499Z,24.80
2023-02-11T07:51:11.185Z,24.83
2023-02-11T07:53:39.676Z,26.30
2023-02-11T07:56:08.601Z,26.50
2023-02-11T07:58:38.329Z,24.70
2023-02-11T08:01:08.596Z,24.77
2023-02-11T08:03:37.305Z,24.83
2023-02-11T08:06:06.173Z,23.90
2023-02-11T08:08:38.058Z,25.07
2023-02-11T08:11:09.627Z,24.53
2023-02-11T08:13:39.566Z,24.10
2023-02-11T08:16:08.316Z,23.80
2023-02-11T08:18:36.974Z,23.47
2023-02-11T08:21:06.654Z,23.63
2023-02-11T08:23:35.229Z,24.47
2023-02-11T08:26:04.584Z,22.73
2023-02-11T08:28:33.035Z,22.33
2023-02-11T08:31:03.578Z,22.40
2023-02-11T08:33:32.090Z,21.70
2023-02-11T08:36:00.636Z,21.93
2023-02-11T08:38:29.076Z,20.27
2023-02-11T08:40:57.433Z,20.33
2023-02-11T08:43:25.947Z,19.80
2023-02-11T08:45:54.606Z,19.87
2023-02-11T08:48:24.499Z,19.57
2023-02-11T08:50:52.917Z,19.13
2023-02-11T08:53:21.342Z,19.53
2023-02-11T08:55:52.799Z,19.60
2023-02-11T08:58:21.798Z,20.00
2023-02-11T09:00:51.024Z,18.33
2023-02-11T09:03:19.885Z,19.03
2023-02-11T09:05:50.145Z,17.73
2023-02-11T09:08:18.790Z,17.70
2023-02-11T09:10:47.328Z,17.87
2023-02-11T09:13:16.500Z,17.13
2023-02-11T09:15:46.852Z,16.23
2023-02-11T09:18:15.242Z,15.33
2023-02-11T09:20:43.636Z,17.37
2023-02-11T09:23:13.718Z,17.43
2023-02-11T09:25:42.437Z,15.83
2023-02-11T09:28:11.598Z,16.53
2023-02-11T09:30:40.133Z,14.90
2023-02-11T09:33:08.600Z,16.83
2023-02-11T09:35:37.051Z,15.43
2023-02-11T09:38:05.850Z,14.83
2023-02-11T09:40:35.901Z,14.33
2023-02-11T09:43:05.482Z,13.37
2023-02-11T09:45:40.031Z,13.67
2023-02-11T09:48:12.447Z,12.37
2023-02-11T09:50:41.416Z,13.73
2023-02-11T09:53:12.045Z,12.43
2023-02-11T09:55:45.617Z,13.40
2023-02-11T09:58:14.474Z,12.67
2023-02-11T10:00:44.079Z,12.60
2023-02-11T10:03:31.021Z,12.40
2023-02-11T10:06:04.121Z,13.20
2023-02-11T10:08:33.116Z,13.73
2023-02-11T10:11:04.403Z,13.43
2023-02-11T10:13:42.843Z,13.50
2023-02-11T10:16:14.366Z,13.33
2023-02-11T10:18:47.780Z,12.90
2023-02-11T10:21:19.394Z,13.33
2023-02-11T10:23:48.781Z,13.90
2023-02-11T10:26:18.726Z,14.17
2023-02-11T10:28:48.023Z,14.53
2023-02-11T10:31:18.129Z,14.37
2023-02-11T10:33:47.007Z,13.43
2023-02-11T10:36:15.762Z,13.67
2023-02-11T10:38:44.442Z,14.80
2023-02-11T10:41:12.974Z,13.43
2023-02-11T10:43:42.683Z,13.43
2023-02-11T10:46:13.063Z,13.50
2023-02-11T10:48:42.881Z,13.30
2023-02-11T10:51:17.346Z,12.83
2023-02-11T10:53:45.782Z,13.60
2023-02-11T10:56:14.551Z,13.50
2023-02-11T10:58:46.035Z,14.07
2023-02-11T11:01:24.249Z,13.77
2023-02-11T11:03:53.515Z,13.83
2023-02-11T11:06:30.159Z,14.27
2023-02-11T11:08:58.728Z,13.33
2023-02-11T11:11:27.485Z,14.90
2023-02-11T11:13:59.208Z,14.40
2023-02-11T11:16:28.301Z,13.67
2023-02-11T11:19:16.992Z,14.00
2023-02-11T11:21:45.775Z,14.13
2023-02-11T11:24:17.917Z,13.37
2023-02-11T11:26:46.802Z,13.47
2023-02-11T11:29:17.258Z,13.50
2023-02-11T11:31:49.474Z,14.13
2023-02-11T11:34:22.711Z,13.77
2023-02-11T11:36:51.459Z,13.67
2023-02-11T11:39:21.043Z,13.63
2023-02-11T11:41:56.635Z,14.47
2023-02-11T11:44:27.804Z,13.97
2023-02-11T11:46:58.446Z,14.70
2023-02-11T11:49:27.759Z,14.20
2023-02-11T11:51:57.450Z,14.63
2023-02-11T11:54:25.882Z,14.80
2023-02-11T11:56:55.747Z,13.40
2023-02-11T11:59:24.753Z,14.40
2023-02-11T12:02:05.306Z,14.20
2023-02-11T12:04:45.357Z,14.50
2023-02-11T12:07:17.822Z,14.40
2023-02-11T12:09:49.075Z,14.47
2023-02-11T12:12:21.341Z,13.27
2023-02-11T12:14:52.000Z,13.23
2023-02-11T12:17:24.654Z,13.67
2023-02-11T12:20:15.530Z,14.60
2023-02-11T12:22:51.141Z,13.93
2023-02-11T12:25:26.067Z,13.70
2023-02-11T12:27:58.050Z,13.67
2023-02-11T12:30:37.503Z,13.43
2023-02-11T12:33:09.518Z,13.30
2023-02-11T12:35:40.958Z,12.93
2023-02-11T12:38:16.091Z,12.93
2023-02-11T12:40:45.801Z,12.70
2023-02-11T12:43:16.639Z,12.20
2023-02-11T12:45:54.988Z,12.57
2023-02-11T12:48:28.012Z,11.63
2023-02-11T12:50:57.634Z,10.93
2023-02-11T12:53:29.431Z,11.27
2023-02-11T12:55:58.486Z,11.03
2023-02-11T12:58:42.903Z,10.17
2023-02-11T13:01:14.690Z,10.03
2023-02-11T13:03:45.396Z,10.20
2023-02-11T13:06:14.549Z,8.97
2023-02-11T13:08:43.925Z,9.40
2023-02-11T13:11:15.044Z,9.60
2023-02-11T13:13:48.473Z,8.47
2023-02-11T13:16:19.172Z,8.77
2023-02-11T13:18:51.524Z,7.83
2023-02-11T13:21:33.782Z,7.23
2023-02-11T13:24:05.654Z,7.13
2023-02-11T13:26:35.451Z,7.17
2023-02-11T13:29:08.659Z,7.07
2023-02-11T13:31:37.363Z,7.33
2023-02-11T13:34:09.535Z,7.70
2023-02-11T13:36:37.920Z,6.67
2023-02-11T13:39:06.706Z,6.60
2023-02-11T13:41:36.445Z,6.80
2023-02-11T13:44:19.287Z,6.77
2023-02-11T13:46:55.042Z,6.67
2023-02-11T13:49:25.792Z,6.60
2023-02-11T13:51:54.256Z,6.47
2023-02-11T13:54:24.569Z,6.17
2023-02-11T13:57:07.837Z,5.30
2023-02-11T13:59:46.153Z,5.90
2023-02-11T14:02:40.281Z,5.60
2023-02-11T14:05:44.352Z,5.77
2023-02-11T14:08:37.501Z,6.23
2023-02-11T14:11:12.360Z,6.20
2023-02-11T14:14:14.406Z,5.67
2023-02-11T14:16:57.716Z,6.53
2023-02-11T14:19:33.046Z,6.03
2023-02-11T14:22:05.146Z,5.93
2023-02-11T14:24:53.413Z,5.50
2023-02-11T14:27:26.330Z,5.63
2023-02-11T14:29:59.369Z,6.27
2023-02-11T14:32:33.832Z,6.40
2023-02-11T14:35:02.652Z,6.00
2023-02-11T14:37:35.477Z,6.07
2023-02-11T14:40:10.198Z,6.30
2023-02-11T14:42:38.662Z,5.93
2023-02-11T14:45:08.123Z,6.17
2023-02-11T14:47:38.838Z,6.33
2023-02-11T14:50:09.982Z,6.07
2023-02-11T14:52:39.957Z,6.10
2023-02-11T14:55:11.398Z,6.33
2023-02-11T14:57:39.831Z,5.83
2023-02-11T15:00:21.620Z,6.07
2023-02-11T15:02:50.423Z,5.50
2023-02-11T15:05:20.211Z,6.30
2023-02-11T15:07:50.774Z,6.30
2023-02-11T15:10:23.683Z,6.33
2023-02-11T15:12:52.066Z,5.60
2023-02-11T15:15:20.648Z,6.13
2023-02-11T15:17:49.038Z,6.17
2023-02-11T15:20:21.526Z,5.03
2023-02-11T15:22:51.506Z,6.20
2023-02-11T15:25:20.279Z,5.70
2023-02-11T15:27:49.256Z,5.20
2023-02-11T15:30:28.247Z,6.03
2023-02-11T15:32:58.905Z,5.97
2023-02-11T15:35:28.673Z,5.17
2023-02-11T15:37:58.824Z,6.00
2023-02-11T15:40:28.919Z,5.60
2023-02-11T15:42:58.777Z,5.60
2023-02-11T15:45:29.861Z,5.47
2023-02-11T15:47:59.455Z,6.23
2023-02-11T15:50:30.412Z,5.90
2023-02-11T15:53:00.922Z,5.80
2023-02-11T15:55:29.405Z,5.80
2023-02-11T15:57:58.184Z,5.97
2023-02-11T16:00:27.071Z,6.40
2023-02-11T16:02:55.670Z,5.77
2023-02-11T16:05:26.969Z,6.07
2023-02-11T16:07:55.795Z,5.60
2023-02-11T16:10:26.710Z,5.93
2023-02-11T16:13:01.126Z,6.60
2023-02-11T16:15:47.550Z,5.83
2023-02-11T16:18:17.821Z,6.30
2023-02-11T16:20:48.828Z,6.20
2023-02-11T16:23:20.111Z,5.63
2023-02-11T16:25:51.655Z,5.93
2023-02-11T16:28:20.318Z,6.07
2023-02-11T16:30:48.963Z,6.40
2023-02-11T16:33:17.542Z,6.00
2023-02-11T16:35:47.667Z,6.70
2023-02-11T16:38:16.215Z,6.77
2023-02-11T16:40:46.309Z,6.70
2023-02-11T16:43:16.105Z,6.57
2023-02-11T16:45:44.712Z,6.00
2023-02-11T16:48:14.781Z,6.43
2023-02-11T16:50:44.560Z,6.90
2023-02-11T16:53:13.275Z,6.27
2023-02-11T16:55:41.978Z,7.00
2023-02-11T16:58:10.550Z,6.97
2023-02-11T17:00:40.412Z,6.53
2023-02-11T17:03:09.069Z,6.83
2023-02-11T17:05:53.193Z,5.97
2023-02-11T17:08:23.254Z,6.70
2023-02-11T17:10:52.148Z,6.27
2023-02-11T17:13:30.100Z,6.43
2023-02-11T17:15:59.943Z,7.00
2023-02-11T17:18:28.389Z,6.83
2023-02-11T17:20:58.104Z,7.23
2023-02-11T17:23:26.627Z,6.80
2023-02-11T17:25:57.356Z,6.77
2023-02-11T17:28:25.827Z,7.53
2023-02-11T17:30:54.488Z,7.37
2023-02-11T17:33:24.384Z,7.30
2023-02-11T17:35:53.366Z,7.40
2023-02-11T17:38:22.110Z,6.77
2023-02-11T17:40:58.754Z,7.87
2023-02-11T17:43:27.558Z,7.20
2023-02-11T17:45:56.341Z,7.73
2023-02-11T17:48:26.453Z,7.13
2023-02-11T17:50:54.945Z,7.10
2023-02-11T17:53:23.522Z,7.27
2023-02-11T17:55:52.172Z,7.77
2023-02-11T17:58:20.849Z,7.13
2023-02-11T18:00:49.416Z,7.50
2023-02-11T18:03:18.848Z,7.30
2023-02-11T18:05:48.768Z,7.37
2023-02-11T18:08:17.325Z,6.77
2023-02-11T18:10:45.769Z,7.30
2023-02-11T18:13:16.424Z,7.80
2023-02-11T18:15:44.988Z,7.70
2023-02-11T18:18:13.564Z,7.73
2023-02-11T18:20:43.059Z,6.87
2023-02-11T18:23:12.968Z,7.83
2023-02-11T18:25:43.334Z,7.87
2023-02-11T18:28:11.804Z,7.60
2023-02-11T18:30:40.313Z,7.53
2023-02-11T18:33:12.082Z,7.60
2023-02-11T18:35:42.981Z,8.27
2023-02-11T18:38:13.940Z,7.33
2023-02-11T18:40:42.419Z,7.87
2023-02-11T18:43:10.828Z,8.13
2023-02-11T18:45:39.317Z,8.43
2023-02-11T18:48:07.847Z,7.67
2023-02-11T18:50:36.335Z,7.87
2023-02-11T18:53:04.925Z,8.33
2023-02-11T18:55:34.824Z,7.80
2023-02-11T18:58:03.798Z,7.43
2023-02-11T19:00:32.396Z,8.13
2023-02-11T19:03:01.041Z,8.83
2023-02-11T19:05:33.533Z,8.33
2023-02-11T19:08:02.269Z,7.53
2023-02-11T19:10:30.804Z,7.63
2023-02-11T19:13:00.767Z,7.80
2023-02-11T19:15:29.224Z,7.70
2023-02-11T19:17:57.766Z,8.17
2023-02-11T19:39:44.655Z,8.20
2023-02-11T19:42:13.254Z,7.20
2023-02-11T19:44:41.718Z,7.20
2023-02-11T19:47:10.818Z,7.63
2023-02-11T19:49:39.349Z,7.53
2023-02-11T19:52:07.782Z,7.73
2023-02-11T19:54:37.726Z,8.17
2023-02-11T19:57:06.309Z,7.50
2023-02-11T19:59:34.795Z,7.57
2023-02-11T20:02:03.287Z,7.70
2023-02-11T20:04:32.267Z,8.23
2023-02-11T20:07:00.895Z,7.87
2023-02-11T20:09:31.339Z,8.10
2023-02-11T20:12:01.531Z,7.83
2023-02-11T20:14:29.997Z,8.23
2023-02-11T20:16:58.734Z,8.33
2023-02-11T20:19:27.991Z,7.67
2023-02-11T20:21:56.659Z,7.50
2023-02-11T20:24:25.194Z,8.00
2023-02-11T20:26:55.858Z,8.10
2023-02-11T20:29:26.224Z,7.80
2023-02-11T20:31:54.896Z,7.57
2023-02-11T20:34:23.486Z,7.80
2023-02-11T20:36:52.884Z,8.80
2023-02-11T20:39:22.686Z,9.10
2023-02-11T20:41:51.578Z,9.37
2023-02-11T20:44:21.862Z,8.47
2023-02-11T20:46:52.087Z,8.97
2023-02-11T20:49:21.301Z,9.20
2023-02-11T20:51:50.216Z,9.43
2023-02-11T20:54:20.222Z,9.37
2023-02-11T20:56:48.766Z,9.10
2023-02-11T20:59:18.708Z,9.50
2023-02-11T21:01:47.991Z,9.03
2023-02-11T21:04:27.585Z,9.17
2023-02-11T21:06:56.547Z,9.97
2023-02-11T21:09:25.855Z,9.40
2023-02-11T21:11:55.399Z,9.50
2023-02-11T21:14:24.264Z,9.97
2023-02-11T21:16:52.985Z,9.43
2023-02-11T21:19:24.457Z,9.20
2023-02-11T21:21:53.145Z,8.63
2023-02-11T21:24:22.166Z,9.60
2023-02-11T21:26:51.101Z,10.23
2023-02-11T21:29:20.414Z,9.13
2023-02-11T21:31:49.112Z,8.70
2023-02-11T21:34:22.507Z,9.57
2023-02-11T21:36:52.983Z,9.20
2023-02-11T21:39:23.135Z,9.50
2023-02-11T21:41:53.443Z,10.23
2023-02-11T21:44:21.975Z,9.40
2023-02-11T21:46:54.291Z,9.30
2023-02-11T21:49:22.934Z,9.43
2023-02-11T21:51:52.958Z,9.60
2023-02-11T21:54:21.531Z,9.37
2023-02-11T21:57:01.238Z,9.63
2023-02-11T21:59:33.855Z,10.03
2023-02-11T22:02:04.192Z,10.17
2023-02-11T22:04:33.518Z,10.60
2023-02-11T22:07:08.767Z,10.93
2023-02-11T22:09:37.197Z,11.73
2023-02-11T22:12:05.941Z,11.30
2023-02-11T22:14:34.578Z,11.17
2023-02-11T22:17:03.072Z,11.23
2023-02-11T22:19:33.225Z,11.80
2023-02-11T22:22:01.851Z,11.53
2023-02-11T22:24:31.754Z,11.53
2023-02-11T22:27:00.274Z,11.67
2023-02-11T22:29:28.728Z,12.20
2023-02-11T22:31:57.244Z,11.20
2023-02-11T22:34:26.475Z,11.07
2023-02-11T22:36:55.293Z,11.03
2023-02-11T22:39:24.101Z,11.13
2023-02-11T22:41:56.563Z,12.57
2023-02-11T22:44:25.112Z,11.93
2023-02-11T22:46:53.794Z,11.57
2023-02-11T22:49:22.601Z,10.90
2023-02-11T22:51:51.153Z,11.37
2023-02-11T22:54:23.302Z,10.13
2023-02-11T22:56:51.878Z,10.40
2023-02-11T22:59:21.747Z,10.40
2023-02-11T23:01:50.821Z,9.80
2023-02-11T23:04:21.261Z,9.90
2023-02-11T23:06:50.454Z,9.77
2023-02-11T23:09:21.924Z,8.97
2023-02-11T23:11:54.351Z,9.93
2023-02-11T23:14:24.430Z,8.87
2023-02-11T23:16:53.190Z,8.63
2023-02-11T23:19:22.237Z,8.90
2023-02-11T23:21:52.152Z,8.57
2023-02-11T23:24:20.678Z,8.97
2023-02-11T23:26:49.179Z,8.40
2023-02-11T23:29:17.902Z,9.70
2023-02-11T23:31:48.018Z,9.13
2023-02-11T23:34:20.388Z,9.17
2023-02-11T23:36:48.976Z,9.43
2023-02-11T23:39:18.272Z,9.07
2023-02-11T23:41:47.067Z,9.47
2023-02-11T23:44:15.759Z,9.63
2023-02-11T23:46:44.885Z,8.83
2023-02-11T23:49:15.656Z,9.53
2023-02-11T23:51:44.914Z,8.40
2023-02-11T23:54:13.945Z,8.63
2023-02-11T23:56:43.970Z,8.93
2023-02-11T23:59:12.849Z,8.50
